sensor_id;sensor_type;location;lat;lon;timestamp;P1;durP1;ratioP1;P2;durP2;ratioP2
82948;SDS011;72736;50.236;18.876;2023-12-20T00:01:34;13.50;;;6.70;;
82948;SDS011;72736;50.236;18.876;2023-12-20T00:06:40;14.40;;;7.00;;
82948;SDS011;72736;50.236;18.876;2023-12-20T00:11:46;20.30;;;8.90;;
82948;SDS011;72736;50.236;18.876;2023-12-20T00:16:51;15.30;;;7.00;;
82948;SDS011;72736;50.236;18.876;2023-12-20T00:21:57;10.90;;;6.10;;
82948;SDS011;72736;50.236;18.876;2023-12-20T00:27:03;8.20;;;4.50;;
82948;SDS011;72736;50.236;18.876;2023-12-20T00:32:09;12.50;;;5.90;;
82948;SDS011;72736;50.236;18.876;2023-12-20T00:37:15;14.20;;;5.60;;
82948;SDS011;72736;50.236;18.876;2023-12-20T00:42:21;16.50;;;6.40;;
82948;SDS011;72736;50.236;18.876;2023-12-20T00:47:26;10.00;;;4.90;;
82948;SDS011;72736;50.236;18.876;2023-12-20T00:52:32;9.70;;;4.80;;
82948;SDS011;72736;50.236;18.876;2023-12-20T00:57:38;7.70;;;3.90;;
82948;SDS011;72736;50.236;18.876;2023-12-20T01:07:49;11.00;;;3.90;;
82948;SDS011;72736;50.236;18.876;2023-12-20T01:12:55;8.50;;;4.30;;
82948;SDS011;72736;50.236;18.876;2023-12-20T01:18:01;9.50;;;4.10;;
82948;SDS011;72736;50.236;18.876;2023-12-20T01:23:07;8.10;;;4.20;;
82948;SDS011;72736;50.236;18.876;2023-12-20T01:28:13;9.20;;;4.20;;
82948;SDS011;72736;50.236;18.876;2023-12-20T01:33:18;8.50;;;3.90;;
82948;SDS011;72736;50.236;18.876;2023-12-20T01:38:24;8.00;;;4.10;;
82948;SDS011;72736;50.236;18.876;2023-12-20T01:43:30;7.80;;;4.10;;
82948;SDS011;72736;50.236;18.876;2023-12-20T01:48:52;8.10;;;4.10;;
82948;SDS011;72736;50.236;18.876;2023-12-20T01:53:58;10.30;;;4.60;;
82948;SDS011;72736;50.236;18.876;2023-12-20T01:59:05;9.50;;;4.10;;
82948;SDS011;72736;50.236;18.876;2023-12-20T02:04:12;9.40;;;4.40;;
82948;SDS011;72736;50.236;18.876;2023-12-20T02:09:19;12.10;;;5.60;;
82948;SDS011;72736;50.236;18.876;2023-12-20T02:14:26;9.90;;;4.40;;
82948;SDS011;72736;50.236;18.876;2023-12-20T02:19:32;11.10;;;5.10;;
82948;SDS011;72736;50.236;18.876;2023-12-20T02:24:38;9.80;;;5.10;;
82948;SDS011;72736;50.236;18.876;2023-12-20T02:29:44;10.50;;;5.30;;
82948;SDS011;72736;50.236;18.876;2023-12-20T02:34:50;9.60;;;4.70;;
82948;SDS011;72736;50.236;18.876;2023-12-20T02:39:56;10.60;;;5.00;;
82948;SDS011;72736;50.236;18.876;2023-12-20T02:45:02;8.40;;;4.60;;
82948;SDS011;72736;50.236;18.876;2023-12-20T02:50:08;13.00;;;5.80;;
82948;SDS011;72736;50.236;18.876;2023-12-20T02:55:14;11.50;;;5.10;;
82948;SDS011;72736;50.236;18.876;2023-12-20T03:00:21;9.40;;;4.80;;
82948;SDS011;72736;50.236;18.876;2023-12-20T03:05:26;12.00;;;5.30;;
82948;SDS011;72736;50.236;18.876;2023-12-20T03:10:32;13.10;;;6.00;;
82948;SDS011;72736;50.236;18.876;2023-12-20T03:15:38;10.70;;;5.60;;
82948;SDS011;72736;50.236;18.876;2023-12-20T03:20:44;16.10;;;6.80;;
82948;SDS011;72736;50.236;18.876;2023-12-20T03:25:52;15.00;;;6.10;;
82948;SDS011;72736;50.236;18.876;2023-12-20T03:30:58;15.70;;;6.70;;
82948;SDS011;72736;50.236;18.876;2023-12-20T03:36:05;17.40;;;6.60;;
82948;SDS011;72736;50.236;18.876;2023-12-20T03:41:11;18.90;;;7.90;;
82948;SDS011;72736;50.236;18.876;2023-12-20T03:46:17;13.10;;;6.10;;
82948;SDS011;72736;50.236;18.876;2023-12-20T03:51:23;15.00;;;7.70;;
82948;SDS011;72736;50.236;18.876;2023-12-20T03:56:28;16.30;;;7.20;;
82948;SDS011;72736;50.236;18.876;2023-12-20T04:01:34;15.20;;;7.40;;
82948;SDS011;72736;50.236;18.876;2023-12-20T04:06:40;12.90;;;7.50;;
82948;SDS011;72736;50.236;18.876;2023-12-20T04:11:46;14.90;;;7.50;;
82948;SDS011;72736;50.236;18.876;2023-12-20T04:16:52;14.30;;;6.90;;
82948;SDS011;72736;50.236;18.876;2023-12-20T04:21:57;16.20;;;7.80;;
82948;SDS011;72736;50.236;18.876;2023-12-20T04:27:03;14.60;;;7.50;;
82948;SDS011;72736;50.236;18.876;2023-12-20T04:32:09;15.70;;;8.10;;
82948;SDS011;72736;50.236;18.876;2023-12-20T04:37:15;16.20;;;8.30;;
82948;SDS011;72736;50.236;18.876;2023-12-20T04:42:21;17.50;;;7.80;;
82948;SDS011;72736;50.236;18.876;2023-12-20T04:47:26;19.80;;;9.10;;
82948;SDS011;72736;50.236;18.876;2023-12-20T04:52:32;13.90;;;7.00;;
82948;SDS011;72736;50.236;18.876;2023-12-20T04:57:38;14.90;;;7.20;;
82948;SDS011;72736;50.236;18.876;2023-12-20T05:02:46;18.60;;;8.80;;
82948;SDS011;72736;50.236;18.876;2023-12-20T05:07:51;14.60;;;7.60;;
82948;SDS011;72736;50.236;18.876;2023-12-20T05:12:57;15.40;;;8.20;;
82948;SDS011;72736;50.236;18.876;2023-12-20T05:18:03;16.30;;;8.00;;
82948;SDS011;72736;50.236;18.876;2023-12-20T05:23:09;18.00;;;9.70;;
82948;SDS011;72736;50.236;18.876;2023-12-20T05:28:16;16.40;;;8.90;;
82948;SDS011;72736;50.236;18.876;2023-12-20T05:33:22;19.80;;;9.50;;
82948;SDS011;72736;50.236;18.876;2023-12-20T05:38:27;20.30;;;10.10;;
82948;SDS011;72736;50.236;18.876;2023-12-20T05:43:33;16.90;;;8.80;;
82948;SDS011;72736;50.236;18.876;2023-12-20T05:48:39;17.10;;;8.60;;
82948;SDS011;72736;50.236;18.876;2023-12-20T05:53:45;16.90;;;8.50;;
82948;SDS011;72736;50.236;18.876;2023-12-20T05:58:53;20.80;;;9.30;;
82948;SDS011;72736;50.236;18.876;2023-12-20T06:03:59;17.60;;;9.30;;
82948;SDS011;72736;50.236;18.876;2023-12-20T06:09:06;21.60;;;10.20;;
82948;SDS011;72736;50.236;18.876;2023-12-20T06:14:12;21.90;;;11.00;;
82948;SDS011;72736;50.236;18.876;2023-12-20T06:19:18;19.00;;;9.60;;
82948;SDS011;72736;50.236;18.876;2023-12-20T06:24:24;20.30;;;9.90;;
82948;SDS011;72736;50.236;18.876;2023-12-20T06:29:31;20.80;;;10.70;;
82948;SDS011;72736;50.236;18.876;2023-12-20T06:34:37;29.10;;;12.70;;
82948;SDS011;72736;50.236;18.876;2023-12-20T06:39:43;27.20;;;11.80;;
82948;SDS011;72736;50.236;18.876;2023-12-20T06:44:49;26.80;;;11.50;;
82948;SDS011;72736;50.236;18.876;2023-12-20T06:49:54;21.30;;;10.50;;
82948;SDS011;72736;50.236;18.876;2023-12-20T06:55:01;21.20;;;10.80;;
82948;SDS011;72736;50.236;18.876;2023-12-20T07:00:08;18.50;;;10.30;;
82948;SDS011;72736;50.236;18.876;2023-12-20T07:05:17;16.70;;;9.60;;
82948;SDS011;72736;50.236;18.876;2023-12-20T07:10:23;21.40;;;10.90;;
82948;SDS011;72736;50.236;18.876;2023-12-20T07:15:28;19.50;;;11.10;;
82948;SDS011;72736;50.236;18.876;2023-12-20T07:20:34;17.20;;;9.00;;
82948;SDS011;72736;50.236;18.876;2023-12-20T07:25:40;19.00;;;10.10;;
82948;SDS011;72736;50.236;18.876;2023-12-20T07:30:45;21.40;;;10.30;;
82948;SDS011;72736;50.236;18.876;2023-12-20T07:35:51;23.30;;;10.60;;
82948;SDS011;72736;50.236;18.876;2023-12-20T07:40:57;21.90;;;10.70;;
82948;SDS011;72736;50.236;18.876;2023-12-20T07:46:06;29.70;;;13.10;;
82948;SDS011;72736;50.236;18.876;2023-12-20T07:51:12;75.00;;;24.80;;
82948;SDS011;72736;50.236;18.876;2023-12-20T07:56:19;102.60;;;35.20;;
82948;SDS011;72736;50.236;18.876;2023-12-20T08:01:25;104.90;;;38.00;;
82948;SDS011;72736;50.236;18.876;2023-12-20T08:06:31;29.60;;;13.30;;
82948;SDS011;72736;50.236;18.876;2023-12-20T08:11:36;25.40;;;12.10;;
82948;SDS011;72736;50.236;18.876;2023-12-20T08:16:42;20.60;;;10.80;;
82948;SDS011;72736;50.236;18.876;2023-12-20T08:21:48;22.60;;;11.30;;
82948;SDS011;72736;50.236;18.876;2023-12-20T08:26:54;23.90;;;11.10;;
82948;SDS011;72736;50.236;18.876;2023-12-20T08:32:00;22.50;;;11.50;;
82948;SDS011;72736;50.236;18.876;2023-12-20T08:37:06;21.70;;;10.70;;
82948;SDS011;72736;50.236;18.876;2023-12-20T08:42:12;24.10;;;11.10;;
82948;SDS011;72736;50.236;18.876;2023-12-20T08:47:18;27.70;;;10.70;;
82948;SDS011;72736;50.236;18.876;2023-12-20T08:52:24;24.60;;;10.70;;
82948;SDS011;72736;50.236;18.876;2023-12-20T08:57:30;22.40;;;11.30;;
82948;SDS011;72736;50.236;18.876;2023-12-20T09:02:36;21.00;;;10.30;;
82948;SDS011;72736;50.236;18.876;2023-12-20T09:07:42;19.40;;;9.40;;
82948;SDS011;72736;50.236;18.876;2023-12-20T09:12:49;22.10;;;10.90;;
82948;SDS011;72736;50.236;18.876;2023-12-20T09:17:59;25.00;;;10.50;;
82948;SDS011;72736;50.236;18.876;2023-12-20T09:23:05;23.60;;;11.40;;
82948;SDS011;72736;50.236;18.876;2023-12-20T09:28:11;22.00;;;11.10;;
82948;SDS011;72736;50.236;18.876;2023-12-20T09:33:16;23.90;;;10.50;;
82948;SDS011;72736;50.236;18.876;2023-12-20T09:38:22;22.60;;;12.00;;
82948;SDS011;72736;50.236;18.876;2023-12-20T09:43:28;25.90;;;11.70;;
82948;SDS011;72736;50.236;18.876;2023-12-20T09:53:40;23.80;;;11.80;;
82948;SDS011;72736;50.236;18.876;2023-12-20T09:58:48;28.00;;;13.80;;
82948;SDS011;72736;50.236;18.876;2023-12-20T10:03:54;27.50;;;13.00;;
82948;SDS011;72736;50.236;18.876;2023-12-20T10:09:01;27.50;;;14.70;;
82948;SDS011;72736;50.236;18.876;2023-12-20T10:14:10;25.40;;;13.50;;
82948;SDS011;72736;50.236;18.876;2023-12-20T10:19:17;21.10;;;11.60;;
82948;SDS011;72736;50.236;18.876;2023-12-20T10:24:25;26.90;;;12.60;;
82948;SDS011;72736;50.236;18.876;2023-12-20T10:29:32;21.70;;;10.70;;
82948;SDS011;72736;50.236;18.876;2023-12-20T10:34:40;24.10;;;12.10;;
82948;SDS011;72736;50.236;18.876;2023-12-20T10:39:47;24.10;;;11.80;;
82948;SDS011;72736;50.236;18.876;2023-12-20T10:44:58;27.00;;;12.60;;
82948;SDS011;72736;50.236;18.876;2023-12-20T10:50:06;25.00;;;11.40;;
82948;SDS011;72736;50.236;18.876;2023-12-20T10:55:13;26.10;;;11.60;;
82948;SDS011;72736;50.236;18.876;2023-12-20T11:00:19;20.00;;;10.80;;
82948;SDS011;72736;50.236;18.876;2023-12-20T11:05:30;23.80;;;13.70;;
82948;SDS011;72736;50.236;18.876;2023-12-20T11:10:43;21.20;;;10.50;;
82948;SDS011;72736;50.236;18.876;2023-12-20T11:15:59;26.20;;;12.00;;
82948;SDS011;72736;50.236;18.876;2023-12-20T11:21:06;21.50;;;10.80;;
82948;SDS011;72736;50.236;18.876;2023-12-20T11:26:11;24.30;;;12.00;;
82948;SDS011;72736;50.236;18.876;2023-12-20T11:31:26;24.70;;;12.30;;
82948;SDS011;72736;50.236;18.876;2023-12-20T11:36:32;29.10;;;14.10;;
82948;SDS011;72736;50.236;18.876;2023-12-20T11:41:38;28.40;;;12.50;;
82948;SDS011;72736;50.236;18.876;2023-12-20T11:46:44;28.20;;;13.60;;
82948;SDS011;72736;50.236;18.876;2023-12-20T11:51:50;25.20;;;12.10;;
82948;SDS011;72736;50.236;18.876;2023-12-20T11:56:55;26.70;;;12.40;;
82948;SDS011;72736;50.236;18.876;2023-12-20T12:02:02;26.70;;;13.10;;
82948;SDS011;72736;50.236;18.876;2023-12-20T12:07:08;27.00;;;13.60;;
82948;SDS011;72736;50.236;18.876;2023-12-20T12:12:14;27.10;;;12.70;;
82948;SDS011;72736;50.236;18.876;2023-12-20T12:17:21;27.30;;;12.60;;
82948;SDS011;72736;50.236;18.876;2023-12-20T12:22:28;25.40;;;11.40;;
82948;SDS011;72736;50.236;18.876;2023-12-20T12:27:34;24.40;;;10.80;;
82948;SDS011;72736;50.236;18.876;2023-12-20T12:32:41;23.20;;;9.90;;
82948;SDS011;72736;50.236;18.876;2023-12-20T12:37:47;23.90;;;10.20;;
82948;SDS011;72736;50.236;18.876;2023-12-20T12:42:53;20.00;;;8.90;;
82948;SDS011;72736;50.236;18.876;2023-12-20T12:47:59;22.20;;;9.80;;
82948;SDS011;72736;50.236;18.876;2023-12-20T12:53:05;26.80;;;12.80;;
82948;SDS011;72736;50.236;18.876;2023-12-20T12:58:11;24.00;;;11.60;;
82948;SDS011;72736;50.236;18.876;2023-12-20T13:03:16;25.80;;;12.40;;
82948;SDS011;72736;50.236;18.876;2023-12-20T13:08:22;25.50;;;11.70;;
82948;SDS011;72736;50.236;18.876;2023-12-20T13:13:28;24.30;;;11.10;;
82948;SDS011;72736;50.236;18.876;2023-12-20T13:18:34;28.50;;;12.90;;
82948;SDS011;72736;50.236;18.876;2023-12-20T13:23:40;27.20;;;12.10;;
82948;SDS011;72736;50.236;18.876;2023-12-20T13:28:46;25.40;;;12.00;;
82948;SDS011;72736;50.236;18.876;2023-12-20T13:33:52;20.30;;;10.80;;
82948;SDS011;72736;50.236;18.876;2023-12-20T13:38:58;23.60;;;11.00;;
82948;SDS011;72736;50.236;18.876;2023-12-20T13:44:06;26.20;;;11.10;;
82948;SDS011;72736;50.236;18.876;2023-12-20T13:49:12;24.00;;;11.60;;
82948;SDS011;72736;50.236;18.876;2023-12-20T13:54:17;28.10;;;13.60;;
82948;SDS011;72736;50.236;18.876;2023-12-20T13:59:25;25.00;;;13.80;;
82948;SDS011;72736;50.236;18.876;2023-12-20T14:04:31;25.30;;;12.40;;
82948;SDS011;72736;50.236;18.876;2023-12-20T14:09:45;26.70;;;12.80;;
82948;SDS011;72736;50.236;18.876;2023-12-20T14:14:51;30.80;;;14.50;;
82948;SDS011;72736;50.236;18.876;2023-12-20T14:19:58;30.10;;;14.40;;
82948;SDS011;72736;50.236;18.876;2023-12-20T14:25:05;27.00;;;13.10;;
82948;SDS011;72736;50.236;18.876;2023-12-20T14:30:13;26.40;;;12.40;;
82948;SDS011;72736;50.236;18.876;2023-12-20T14:35:20;26.60;;;12.90;;
82948;SDS011;72736;50.236;18.876;2023-12-20T14:40:26;27.90;;;14.40;;
82948;SDS011;72736;50.236;18.876;2023-12-20T14:45:32;30.90;;;14.30;;
82948;SDS011;72736;50.236;18.876;2023-12-20T14:55:43;31.40;;;14.00;;
82948;SDS011;72736;50.236;18.876;2023-12-20T15:00:50;38.80;;;15.00;;
82948;SDS011;72736;50.236;18.876;2023-12-20T15:05:55;33.60;;;15.80;;
82948;SDS011;72736;50.236;18.876;2023-12-20T15:11:02;30.60;;;14.90;;
82948;SDS011;72736;50.236;18.876;2023-12-20T15:16:08;30.30;;;15.70;;
82948;SDS011;72736;50.236;18.876;2023-12-20T15:21:14;30.60;;;14.60;;
82948;SDS011;72736;50.236;18.876;2023-12-20T15:26:20;26.30;;;13.80;;
82948;SDS011;72736;50.236;18.876;2023-12-20T15:31:25;23.00;;;11.30;;
82948;SDS011;72736;50.236;18.876;2023-12-20T15:36:32;18.30;;;10.00;;
82948;SDS011;72736;50.236;18.876;2023-12-20T15:41:38;20.60;;;9.10;;
82948;SDS011;72736;50.236;18.876;2023-12-20T15:46:44;20.70;;;10.70;;
82948;SDS011;72736;50.236;18.876;2023-12-20T15:51:50;18.30;;;9.10;;
82948;SDS011;72736;50.236;18.876;2023-12-20T15:56:56;22.90;;;10.90;;
82948;SDS011;72736;50.236;18.876;2023-12-20T16:02:01;27.10;;;11.80;;
82948;SDS011;72736;50.236;18.876;2023-12-20T16:07:07;24.50;;;12.40;;
82948;SDS011;72736;50.236;18.876;2023-12-20T16:12:13;26.80;;;12.30;;
82948;SDS011;72736;50.236;18.876;2023-12-20T16:17:19;25.30;;;12.70;;
82948;SDS011;72736;50.236;18.876;2023-12-20T16:22:25;26.10;;;13.60;;
82948;SDS011;72736;50.236;18.876;2023-12-20T16:27:30;26.40;;;13.00;;
82948;SDS011;72736;50.236;18.876;2023-12-20T16:32:37;24.40;;;12.60;;
82948;SDS011;72736;50.236;18.876;2023-12-20T16:37:43;23.60;;;11.80;;
82948;SDS011;72736;50.236;18.876;2023-12-20T16:42:49;24.60;;;11.40;;
82948;SDS011;72736;50.236;18.876;2023-12-20T16:47:55;22.50;;;10.70;;
82948;SDS011;72736;50.236;18.876;2023-12-20T16:53:01;26.00;;;11.80;;
82948;SDS011;72736;50.236;18.876;2023-12-20T16:58:08;21.50;;;10.20;;
82948;SDS011;72736;50.236;18.876;2023-12-20T17:03:14;20.70;;;9.50;;
82948;SDS011;72736;50.236;18.876;2023-12-20T17:08:23;19.50;;;9.20;;
82948;SDS011;72736;50.236;18.876;2023-12-20T17:13:29;17.30;;;8.60;;
82948;SDS011;72736;50.236;18.876;2023-12-20T17:18:36;15.70;;;7.80;;
82948;SDS011;72736;50.236;18.876;2023-12-20T17:23:42;15.70;;;7.90;;
82948;SDS011;72736;50.236;18.876;2023-12-20T17:28:49;13.70;;;7.40;;
82948;SDS011;72736;50.236;18.876;2023-12-20T17:33:54;17.60;;;7.80;;
82948;SDS011;72736;50.236;18.876;2023-12-20T17:39:00;13.70;;;6.30;;
82948;SDS011;72736;50.236;18.876;2023-12-20T17:44:07;14.40;;;6.20;;
82948;SDS011;72736;50.236;18.876;2023-12-20T17:49:15;13.40;;;6.30;;
82948;SDS011;72736;50.236;18.876;2023-12-20T17:54:22;11.60;;;5.60;;
82948;SDS011;72736;50.236;18.876;2023-12-20T17:59:28;13.10;;;6.40;;
82948;SDS011;72736;50.236;18.876;2023-12-20T18:04:34;12.30;;;5.20;;
82948;SDS011;72736;50.236;18.876;2023-12-20T18:09:40;13.20;;;6.20;;
82948;SDS011;72736;50.236;18.876;2023-12-20T18:14:46;11.50;;;4.80;;
82948;SDS011;72736;50.236;18.876;2023-12-20T18:19:54;11.30;;;5.50;;
82948;SDS011;72736;50.236;18.876;2023-12-20T18:25:03;12.60;;;5.20;;
82948;SDS011;72736;50.236;18.876;2023-12-20T18:30:10;12.40;;;5.40;;
82948;SDS011;72736;50.236;18.876;2023-12-20T18:35:19;11.30;;;5.60;;
82948;SDS011;72736;50.236;18.876;2023-12-20T18:40:25;12.60;;;5.90;;
82948;SDS011;72736;50.236;18.876;2023-12-20T18:45:32;14.10;;;5.80;;
82948;SDS011;72736;50.236;18.876;2023-12-20T18:50:38;11.30;;;5.20;;
82948;SDS011;72736;50.236;18.876;2023-12-20T18:55:43;12.00;;;5.20;;
82948;SDS011;72736;50.236;18.876;2023-12-20T19:00:50;10.80;;;4.60;;
82948;SDS011;72736;50.236;18.876;2023-12-20T19:05:55;10.20;;;5.10;;
82948;SDS011;72736;50.236;18.876;2023-12-20T19:11:04;8.80;;;4.20;;
82948;SDS011;72736;50.236;18.876;2023-12-20T19:16:10;12.20;;;4.80;;
82948;SDS011;72736;50.236;18.876;2023-12-20T19:21:16;10.70;;;4.70;;
82948;SDS011;72736;50.236;18.876;2023-12-20T19:26:22;11.50;;;4.60;;
82948;SDS011;72736;50.236;18.876;2023-12-20T19:31:28;10.10;;;5.30;;
82948;SDS011;72736;50.236;18.876;2023-12-20T19:36:34;11.20;;;5.00;;
82948;SDS011;72736;50.236;18.876;2023-12-20T19:41:39;10.50;;;4.80;;
82948;SDS011;72736;50.236;18.876;2023-12-20T19:46:45;8.60;;;4.00;;
82948;SDS011;72736;50.236;18.876;2023-12-20T19:51:52;12.50;;;4.80;;
82948;SDS011;72736;50.236;18.876;2023-12-20T19:56:58;11.70;;;4.40;;
82948;SDS011;72736;50.236;18.876;2023-12-20T20:07:10;11.60;;;4.90;;
82948;SDS011;72736;50.236;18.876;2023-12-20T20:12:18;11.80;;;5.80;;
82948;SDS011;72736;50.236;18.876;2023-12-20T20:17:23;11.90;;;5.30;;
82948;SDS011;72736;50.236;18.876;2023-12-20T20:22:29;13.40;;;5.50;;
82948;SDS011;72736;50.236;18.876;2023-12-20T20:27:36;12.90;;;4.50;;
82948;SDS011;72736;50.236;18.876;2023-12-20T20:32:42;11.50;;;4.50;;
82948;SDS011;72736;50.236;18.876;2023-12-20T20:37:53;11.20;;;4.90;;
82948;SDS011;72736;50.236;18.876;2023-12-20T20:42:59;11.40;;;4.60;;
82948;SDS011;72736;50.236;18.876;2023-12-20T20:48:07;18.80;;;5.00;;
82948;SDS011;72736;50.236;18.876;2023-12-20T20:53:31;13.00;;;5.30;;
82948;SDS011;72736;50.236;18.876;2023-12-20T20:58:38;12.60;;;4.60;;
82948;SDS011;72736;50.236;18.876;2023-12-20T21:03:44;10.30;;;4.30;;
82948;SDS011;72736;50.236;18.876;2023-12-20T21:08:50;9.20;;;4.10;;
82948;SDS011;72736;50.236;18.876;2023-12-20T21:13:56;10.70;;;4.40;;
82948;SDS011;72736;50.236;18.876;2023-12-20T21:19:02;9.60;;;4.30;;
82948;SDS011;72736;50.236;18.876;2023-12-20T21:24:09;12.70;;;4.80;;
82948;SDS011;72736;50.236;18.876;2023-12-20T21:29:17;12.00;;;4.60;;
82948;SDS011;72736;50.236;18.876;2023-12-20T21:34:23;14.50;;;5.40;;
82948;SDS011;72736;50.236;18.876;2023-12-20T21:39:29;11.80;;;5.00;;
82948;SDS011;72736;50.236;18.876;2023-12-20T21:44:34;12.30;;;4.50;;
82948;SDS011;72736;50.236;18.876;2023-12-20T21:49:40;10.80;;;4.40;;
82948;SDS011;72736;50.236;18.876;2023-12-20T21:54:46;10.20;;;3.90;;
82948;SDS011;72736;50.236;18.876;2023-12-20T21:59:52;12.30;;;4.40;;
82948;SDS011;72736;50.236;18.876;2023-12-20T22:04:57;10.70;;;3.80;;
82948;SDS011;72736;50.236;18.876;2023-12-20T22:10:03;12.60;;;5.10;;
82948;SDS011;72736;50.236;18.876;2023-12-20T22:15:11;11.30;;;4.60;;
82948;SDS011;72736;50.236;18.876;2023-12-20T22:20:17;9.70;;;4.00;;
82948;SDS011;72736;50.236;18.876;2023-12-20T22:25:22;9.40;;;3.90;;
82948;SDS011;72736;50.236;18.876;2023-12-20T22:30:28;10.80;;;4.30;;
82948;SDS011;72736;50.236;18.876;2023-12-20T22:35:34;14.70;;;4.60;;
82948;SDS011;72736;50.236;18.876;2023-12-20T22:40:40;12.60;;;4.60;;
82948;SDS011;72736;50.236;18.876;2023-12-20T22:45:45;10.00;;;4.00;;
82948;SDS011;72736;50.236;18.876;2023-12-20T22:50:51;12.90;;;4.30;;
82948;SDS011;72736;50.236;18.876;2023-12-20T22:55:57;9.10;;;4.30;;
82948;SDS011;72736;50.236;18.876;2023-12-20T23:01:03;13.80;;;5.20;;
82948;SDS011;72736;50.236;18.876;2023-12-20T23:06:09;10.10;;;4.30;;
82948;SDS011;72736;50.236;18.876;2023-12-20T23:11:16;10.20;;;4.60;;
82948;SDS011;72736;50.236;18.876;2023-12-20T23:16:22;7.80;;;3.70;;
82948;SDS011;72736;50.236;18.876;2023-12-20T23:21:27;10.80;;;4.20;;
82948;SDS011;72736;50.236;18.876;2023-12-20T23:26:33;11.80;;;4.80;;
82948;SDS011;72736;50.236;18.876;2023-12-20T23:31:41;8.40;;;3.90;;
82948;SDS011;72736;50.236;18.876;2023-12-20T23:36:46;8.30;;;3.70;;
82948;SDS011;72736;50.236;18.876;2023-12-20T23:41:52;6.60;;;3.30;;
82948;SDS011;72736;50.236;18.876;2023-12-20T23:52:03;11.00;;;3.90;;
82948;SDS011;72736;50.236;18.876;2023-12-20T23:57:10;8.80;;;3.80;;
